This is the latest recevied weather packets stored in our database for station/object SP9POL-3. If no packets are shown the sender has not sent any weather packets the latest 10 day(s).
| Time | Temp. | Humidity | Pressure | Rain* | Wind** | Luminosity | Snow |
|---|---|---|---|---|---|---|---|
| 1777743081 | 20° C | 22% | 1018.4 hPa | - | - | - | - |
| 1777741401 | 21.11° C | 20% | 1018.4 hPa | - | - | - | - |
| 1777739721 | 21.67° C | 19% | 1018.6 hPa | - | - | - | - |
| 1777738040 | 22.78° C | 17% | 1018.9 hPa | - | - | - | - |
| 1777736360 | 24.44° C | 16% | 1019.1 hPa | - | - | - | - |
| 1777734680 | 28.33° C | 13% | 1019.5 hPa | - | - | - | - |
| 1777733000 | 27.22° C | 14% | 1019.6 hPa | - | - | - | - |
| 1777731320 | 24.44° C | 17% | 1020 hPa | - | - | - | - |
| 1777729639 | 22.78° C | 18% | 1020.3 hPa | - | - | - | - |
| 1777727959 | 21.67° C | 22% | 1020.7 hPa | - | - | - | - |
| 1777726279 | 22.22° C | 20% | 1021 hPa | - | - | - | - |
| 1777724599 | 25° C | 19% | 1021.4 hPa | - | - | - | - |
| 1777722919 | 25° C | 18% | 1021.7 hPa | - | - | - | - |
| 1777721239 | 23.33° C | 20% | 1022 hPa | - | - | - | - |
| 1777719559 | 20.56° C | 24% | 1022.3 hPa | - | - | - | - |
| 1777717878 | 18.89° C | 27% | 1022.5 hPa | - | - | - | - |
| 1777716198 | 17.78° C | 28% | 1022.9 hPa | - | - | - | - |
| 1777714518 | 17.22° C | 29% | 1023.1 hPa | - | - | - | - |
| 1777712838 | 16.67° C | 33% | 1023.3 hPa | - | - | - | - |
| 1777711158 | 16.11° C | 33% | 1023.6 hPa | - | - | - | - |
| 1777709478 | 15.56° C | 35% | 1023.6 hPa | - | - | - | - |
| 1777707798 | 15° C | 38% | 1023.9 hPa | - | - | - | - |
| 1777706118 | 13.89° C | 40% | 1023.9 hPa | - | - | - | - |
| 1777704437 | 12.78° C | 46% | 1023.9 hPa | - | - | - | - |
| 1777702756 | 11.67° C | 51% | 1024.1 hPa | - | - | - | - |
* Rain since midnight (hover to see other rain measurements)
** Current wind speed in m/s (hover to see current wind gust speed)